Terminal Aerodrome Forecast
Issued by NWS

Home | Current Version | Previous Version | Text Only | Print | Product List | Glossary On
Versions: 1 2 3 4 5 6 7 8 9 10 11 12 13 14 15 16 17 18 19 20 21
000
FTUS46 KSTO 201040 AAA
TAFRBL
TAF AMD
KRBL 201040Z 2011/2106 15022G27KT 6SM BR VCSH BKN010
     FM201300 16028G38KT 5SM RA BR OVC007
     FM201700 16020G35KT P6SM VCSH OVC015
     FM202100 16030G38KT 4SM RA OVC015=

USA.gov is the U.S. government's official web portal to all federal, state and local government web resources and services.